createdAt,value
2023-03-30T00:01:01.307Z,119
2023-03-30T00:02:07.879Z,118
2023-03-30T00:03:14.866Z,116
2023-03-30T00:04:21.660Z,113
2023-03-30T00:05:28.501Z,119
2023-03-30T00:06:35.404Z,107
2023-03-30T00:07:42.288Z,108
2023-03-30T00:08:49.083Z,114
2023-03-30T00:10:00.940Z,116
2023-03-30T00:11:07.997Z,120
2023-03-30T00:12:14.819Z,113
2023-03-30T00:13:21.692Z,112
2023-03-30T00:14:28.708Z,114
2023-03-30T00:15:35.532Z,113
2023-03-30T00:16:42.354Z,116
2023-03-30T00:17:49.229Z,120
2023-03-30T00:18:56.059Z,113
2023-03-30T00:20:03.001Z,120
2023-03-30T00:21:10.186Z,113
2023-03-30T00:22:17.056Z,120
2023-03-30T00:23:23.890Z,114
2023-03-30T00:24:30.761Z,113
2023-03-30T00:25:37.660Z,114
2023-03-30T00:26:44.601Z,111
2023-03-30T00:27:51.394Z,123
2023-03-30T00:28:58.233Z,112
2023-03-30T00:30:05.080Z,112
2023-03-30T00:31:12.032Z,115
2023-03-30T00:32:18.943Z,116
2023-03-30T00:33:37.514Z,107
2023-03-30T00:34:32.688Z,120
2023-03-30T00:35:39.581Z,121
2023-03-30T00:36:46.428Z,115
2023-03-30T00:37:53.398Z,113
2023-03-30T00:39:00.250Z,118
2023-03-30T00:40:10.186Z,125
2023-03-30T00:41:17.274Z,111
2023-03-30T00:42:24.134Z,124
2023-03-30T00:43:31.059Z,112
2023-03-30T00:44:37.832Z,116
2023-03-30T00:45:54.811Z,114
2023-03-30T00:47:01.639Z,110
2023-03-30T00:48:08.562Z,110
2023-03-30T00:49:18.289Z,110
2023-03-30T00:50:25.385Z,105
2023-03-30T00:51:35.339Z,117
2023-03-30T00:52:42.229Z,114
2023-03-30T00:53:49.079Z,112
2023-03-30T00:54:55.836Z,120
2023-03-30T00:56:02.700Z,116
2023-03-30T00:57:09.738Z,107
2023-03-30T00:58:16.544Z,110
2023-03-30T00:59:23.424Z,108
2023-03-30T01:00:30.311Z,112
2023-03-30T01:01:37.173Z,115
2023-03-30T01:02:44.073Z,104
2023-03-30T01:03:51.066Z,117
2023-03-30T01:05:00.608Z,108
2023-03-30T01:06:07.614Z,110
2023-03-30T01:07:14.418Z,106
2023-03-30T01:08:21.268Z,109
2023-03-30T01:09:28.099Z,108
2023-03-30T01:10:35.019Z,108
2023-03-30T01:11:41.882Z,114
2023-03-30T01:12:48.677Z,114
2023-03-30T01:13:55.496Z,111
2023-03-30T01:15:05.156Z,104
2023-03-30T01:16:12.182Z,111
2023-03-30T01:17:28.997Z,105
2023-03-30T01:18:35.907Z,103
2023-03-30T01:19:50.632Z,107
2023-03-30T01:21:02.804Z,104
2023-03-30T01:22:19.537Z,110
2023-03-30T01:23:31.508Z,107
2023-03-30T01:24:48.394Z,101
2023-03-30T01:26:05.414Z,107
2023-03-30T01:27:22.416Z,99
2023-03-30T01:28:34.319Z,103
2023-03-30T01:29:49.112Z,104
2023-03-30T01:30:56.039Z,103
2023-03-30T01:32:12.942Z,113
2023-03-30T01:33:27.625Z,107
2023-03-30T01:34:44.495Z,107
2023-03-30T01:36:01.444Z,98
2023-03-30T01:37:18.367Z,103
2023-03-30T01:38:35.431Z,108
2023-03-30T01:39:52.335Z,105
2023-03-30T01:41:07.183Z,99
2023-03-30T01:42:22.095Z,96
2023-03-30T01:43:33.970Z,97
2023-03-30T01:44:48.590Z,107
2023-03-30T01:45:58.391Z,96
2023-03-30T01:47:05.233Z,104
2023-03-30T01:48:22.079Z,103
2023-03-30T01:49:34.867Z,100
2023-03-30T01:50:46.686Z,104
2023-03-30T01:51:53.630Z,95
2023-03-30T01:53:08.556Z,100
2023-03-30T01:54:18.425Z,91
2023-03-30T01:55:27.914Z,106
2023-03-30T01:56:42.678Z,96
2023-03-30T01:57:52.346Z,96
2023-03-30T01:59:04.173Z,95
2023-03-30T02:00:16.080Z,96
2023-03-30T02:01:23.088Z,90
2023-03-30T02:02:29.908Z,101
2023-03-30T02:03:36.792Z,96
2023-03-30T02:04:43.526Z,99
2023-03-30T02:05:50.391Z,92
2023-03-30T02:06:57.226Z,102
2023-03-30T02:08:06.744Z,100
2023-03-30T02:09:13.565Z,90
2023-03-30T02:10:20.393Z,94
2023-03-30T02:11:27.258Z,93
2023-03-30T02:12:34.034Z,83
2023-03-30T02:13:40.797Z,88
2023-03-30T02:14:47.661Z,89
2023-03-30T02:15:54.589Z,90
2023-03-30T02:17:01.461Z,85
2023-03-30T02:18:13.400Z,81
2023-03-30T02:19:20.326Z,94
2023-03-30T02:20:27.127Z,82
2023-03-30T02:21:33.982Z,87
2023-03-30T02:22:40.795Z,84
2023-03-30T02:23:47.594Z,78
2023-03-30T02:24:54.454Z,88
2023-03-30T02:26:01.305Z,79
2023-03-30T02:27:08.058Z,90
2023-03-30T02:28:14.883Z,90
2023-03-30T02:29:21.859Z,78
2023-03-30T02:30:28.702Z,78
2023-03-30T02:31:35.554Z,81
2023-03-30T02:32:42.522Z,77
2023-03-30T02:33:57.386Z,84
2023-03-30T02:35:12.271Z,77
2023-03-30T02:36:27.082Z,86
2023-03-30T02:37:44.074Z,86
2023-03-30T02:38:58.554Z,79
2023-03-30T02:40:13.208Z,78
2023-03-30T02:41:27.922Z,82
2023-03-30T02:42:34.902Z,86
2023-03-30T02:43:44.563Z,80
2023-03-30T02:44:54.173Z,81
2023-03-30T02:46:04.256Z,80
2023-03-30T02:47:16.077Z,77
2023-03-30T02:48:25.671Z,84
2023-03-30T02:49:37.503Z,75
2023-03-30T02:50:44.376Z,81
2023-03-30T02:51:59.287Z,89
2023-03-30T02:53:13.960Z,76
2023-03-30T02:54:25.798Z,75
2023-03-30T02:55:32.800Z,89
2023-03-30T02:56:44.698Z,75
2023-03-30T02:57:51.429Z,79
2023-03-30T02:59:03.335Z,75
2023-03-30T03:00:15.180Z,75
2023-03-30T03:01:27.068Z,75
2023-03-30T03:02:36.722Z,78
2023-03-30T03:03:46.108Z,81
2023-03-30T03:04:52.944Z,82
2023-03-30T03:05:59.772Z,83
2023-03-30T03:07:06.554Z,82
2023-03-30T03:08:13.335Z,85
2023-03-30T03:09:20.129Z,87
2023-03-30T03:10:30.012Z,93
2023-03-30T03:11:36.753Z,94
2023-03-30T03:12:43.584Z,95
2023-03-30T03:13:50.501Z,92
2023-03-30T03:14:57.304Z,98
2023-03-30T03:16:04.342Z,96
2023-03-30T03:17:11.123Z,99
2023-03-30T03:18:17.720Z,100
2023-03-30T03:19:24.571Z,99
2023-03-30T03:20:31.328Z,97
2023-03-30T03:21:38.194Z,95
2023-03-30T03:22:44.940Z,101
2023-03-30T03:23:51.694Z,106
2023-03-30T03:24:58.556Z,96
2023-03-30T03:26:05.484Z,100
2023-03-30T03:27:12.297Z,100
2023-03-30T03:28:19.105Z,101
2023-03-30T03:29:25.840Z,96
2023-03-30T03:30:32.728Z,102
2023-03-30T03:31:39.728Z,98
2023-03-30T03:32:46.439Z,101
2023-03-30T03:33:53.194Z,98
2023-03-30T03:35:00.026Z,106
2023-03-30T03:36:06.993Z,106
2023-03-30T03:37:13.811Z,106
2023-03-30T03:38:20.527Z,115
2023-03-30T03:39:27.337Z,109
2023-03-30T03:40:34.173Z,108
2023-03-30T03:41:41.097Z,105
2023-03-30T03:42:47.966Z,110
2023-03-30T03:43:54.757Z,117
2023-03-30T03:45:01.467Z,115
2023-03-30T03:46:08.631Z,115
2023-03-30T03:47:16.517Z,117
2023-03-30T03:48:22.167Z,118
2023-03-30T03:49:28.942Z,120
2023-03-30T03:50:35.703Z,116
2023-03-30T03:51:42.495Z,106
2023-03-30T03:52:49.447Z,116
2023-03-30T03:53:56.431Z,118
2023-03-30T03:55:03.225Z,112
2023-03-30T03:56:10.180Z,122
2023-03-30T03:57:16.985Z,115
2023-03-30T03:58:23.893Z,120
2023-03-30T03:59:30.751Z,123
2023-03-30T04:00:37.540Z,114
2023-03-30T04:01:44.308Z,112
2023-03-30T04:02:51.123Z,113
2023-03-30T04:03:57.867Z,114
2023-03-30T04:05:04.776Z,116
2023-03-30T04:06:11.527Z,115
2023-03-30T04:07:18.280Z,111
2023-03-30T04:08:25.077Z,107
2023-03-30T04:09:31.938Z,119
2023-03-30T04:10:38.852Z,123
2023-03-30T04:11:45.613Z,113
2023-03-30T04:12:52.389Z,120
2023-03-30T04:13:59.133Z,120
2023-03-30T04:15:05.977Z,111
2023-03-30T04:16:12.963Z,116
2023-03-30T04:17:19.681Z,116
2023-03-30T04:18:26.408Z,119
2023-03-30T04:19:33.153Z,114
2023-03-30T04:20:39.898Z,111
2023-03-30T04:21:46.845Z,119
2023-03-30T04:22:53.607Z,115
2023-03-30T04:24:00.341Z,118
2023-03-30T04:25:07.321Z,110
2023-03-30T04:26:14.090Z,110
2023-03-30T04:27:20.954Z,126
2023-03-30T04:28:27.786Z,120
2023-03-30T04:29:34.520Z,111
2023-03-30T04:30:41.356Z,114
2023-03-30T04:31:48.130Z,114
2023-03-30T04:32:55.018Z,119
2023-03-30T04:34:06.835Z,111
2023-03-30T04:35:13.673Z,122
2023-03-30T04:36:20.442Z,121
2023-03-30T04:37:27.188Z,118
2023-03-30T04:38:34.005Z,115
2023-03-30T04:39:40.757Z,117
2023-03-30T04:40:47.605Z,126
2023-03-30T04:41:54.474Z,120
2023-03-30T04:43:01.204Z,116
2023-03-30T04:44:08.030Z,108
2023-03-30T04:45:14.793Z,118
2023-03-30T04:46:24.278Z,110
2023-03-30T04:47:31.629Z,124
2023-03-30T04:48:38.666Z,118
2023-03-30T04:49:45.461Z,112
2023-03-30T04:50:52.352Z,119
2023-03-30T04:51:59.002Z,113
2023-03-30T04:53:05.894Z,120
2023-03-30T04:54:12.673Z,116
2023-03-30T04:55:19.506Z,110
2023-03-30T04:56:26.304Z,113
2023-03-30T04:57:33.049Z,111
2023-03-30T04:58:39.930Z,118
2023-03-30T04:59:47.598Z,113
2023-03-30T05:00:54.422Z,112
2023-03-30T05:02:01.237Z,113
2023-03-30T05:03:08.058Z,108
2023-03-30T05:04:14.882Z,108
2023-03-30T05:05:21.650Z,110
2023-03-30T05:06:29.009Z,115
2023-03-30T05:07:35.777Z,118
2023-03-30T05:08:42.514Z,116
2023-03-30T05:09:49.386Z,114
2023-03-30T05:10:56.302Z,121
2023-03-30T05:12:05.903Z,112
2023-03-30T05:13:12.716Z,112
2023-03-30T05:14:19.457Z,111
2023-03-30T05:15:26.198Z,121
2023-03-30T05:16:33.067Z,121
2023-03-30T05:17:39.881Z,121
2023-03-30T05:18:47.761Z,128
2023-03-30T05:19:54.051Z,122
2023-03-30T05:21:00.927Z,116
2023-03-30T05:22:07.739Z,115
2023-03-30T05:23:14.623Z,120
2023-03-30T05:24:21.526Z,117
2023-03-30T05:25:28.351Z,114
2023-03-30T05:26:35.156Z,115
2023-03-30T05:27:41.884Z,117
2023-03-30T05:28:48.782Z,112
2023-03-30T05:29:55.803Z,116
2023-03-30T05:31:02.858Z,113
2023-03-30T05:32:09.562Z,116
2023-03-30T05:33:16.381Z,121
2023-03-30T05:34:23.107Z,112
2023-03-30T05:35:30.049Z,117
2023-03-30T05:36:36.774Z,122
2023-03-30T05:37:43.613Z,116
2023-03-30T05:38:50.342Z,121
2023-03-30T05:39:57.125Z,113
2023-03-30T05:41:04.246Z,114
2023-03-30T05:42:10.744Z,107
2023-03-30T05:43:17.572Z,114
2023-03-30T05:44:24.342Z,111
2023-03-30T05:45:31.128Z,117
2023-03-30T05:46:38.055Z,112
2023-03-30T05:47:44.891Z,121
2023-03-30T05:48:51.673Z,119
2023-03-30T05:49:58.312Z,113
2023-03-30T05:51:05.284Z,113
2023-03-30T05:52:11.952Z,111
2023-03-30T05:53:18.686Z,118
2023-03-30T05:54:25.437Z,109
2023-03-30T05:55:32.200Z,120
2023-03-30T05:56:40.155Z,112
2023-03-30T05:57:48.134Z,114
2023-03-30T05:58:55.011Z,120
2023-03-30T06:00:01.756Z,113
2023-03-30T06:01:08.892Z,103
2023-03-30T06:02:15.724Z,110
2023-03-30T06:03:22.614Z,111
2023-03-30T06:04:29.326Z,118
2023-03-30T06:05:36.079Z,120
2023-03-30T06:06:42.926Z,118
2023-03-30T06:07:49.646Z,118
2023-03-30T06:08:56.429Z,109
2023-03-30T06:10:03.450Z,111
2023-03-30T06:11:10.449Z,114
2023-03-30T06:12:17.204Z,108
2023-03-30T06:13:23.947Z,109
2023-03-30T06:14:30.707Z,116
2023-03-30T06:15:37.552Z,114
2023-03-30T06:16:44.533Z,103
2023-03-30T06:17:51.466Z,112
2023-03-30T06:18:58.076Z,107
2023-03-30T06:20:04.899Z,101
2023-03-30T06:21:12.197Z,104
2023-03-30T06:22:19.048Z,115
2023-03-30T06:23:25.832Z,105
2023-03-30T06:24:32.738Z,99
2023-03-30T06:25:39.446Z,102
2023-03-30T06:26:46.334Z,94
2023-03-30T06:27:53.121Z,87
2023-03-30T06:28:59.879Z,93
2023-03-30T06:30:06.698Z,96
2023-03-30T06:31:14.071Z,90
2023-03-30T06:32:20.602Z,98
2023-03-30T06:33:27.460Z,87
2023-03-30T06:34:34.223Z,85
2023-03-30T06:35:41.072Z,84
2023-03-30T06:36:50.286Z,82
2023-03-30T06:37:57.041Z,99
2023-03-30T06:39:05.975Z,91
2023-03-30T06:40:10.793Z,84
2023-03-30T06:41:18.059Z,89
2023-03-30T06:42:25.166Z,85
2023-03-30T06:43:31.985Z,83
2023-03-30T06:44:39.139Z,82
2023-03-30T06:46:44.225Z,82
2023-03-30T06:48:49.246Z,82
2023-03-30T06:50:45.606Z,82
2023-03-30T06:51:52.321Z,81
2023-03-30T06:52:59.178Z,81
2023-03-30T06:54:06.064Z,76
2023-03-30T06:55:12.833Z,74
2023-03-30T06:56:19.638Z,72
2023-03-30T06:57:26.590Z,76
2023-03-30T06:58:33.248Z,69
2023-03-30T06:59:40.134Z,72
2023-03-30T07:00:47.063Z,65
2023-03-30T07:01:53.944Z,63
2023-03-30T07:03:00.750Z,44
2023-03-30T07:04:07.510Z,62
2023-03-30T07:05:14.242Z,45
2023-03-30T07:06:21.336Z,42
2023-03-30T07:07:27.798Z,39
2023-03-30T07:08:34.522Z,36
2023-03-30T07:09:41.290Z,54
2023-03-30T07:10:48.108Z,46
2023-03-30T07:11:56.244Z,33
2023-03-30T07:13:01.821Z,27
2023-03-30T07:14:08.670Z,32
2023-03-30T07:15:15.521Z,27
2023-03-30T07:16:22.511Z,37
2023-03-30T07:17:29.233Z,41
2023-03-30T07:18:35.959Z,35
2023-03-30T07:19:42.846Z,31
2023-03-30T07:20:49.597Z,25
2023-03-30T07:21:57.959Z,27
2023-03-30T07:23:04.868Z,35
2023-03-30T07:24:11.688Z,25
2023-03-30T07:25:18.515Z,29
2023-03-30T07:26:25.408Z,39
2023-03-30T07:27:32.160Z,30
2023-03-30T07:28:39.035Z,27
2023-03-30T07:29:45.844Z,25
2023-03-30T07:30:52.777Z,25
2023-03-30T07:31:59.626Z,30
2023-03-30T07:33:06.416Z,43
2023-03-30T07:34:13.215Z,27
2023-03-30T07:35:20.225Z,35
2023-03-30T07:36:26.983Z,29
2023-03-30T07:37:33.817Z,27
2023-03-30T07:38:40.649Z,31
2023-03-30T07:39:47.434Z,26
2023-03-30T07:40:54.253Z,29
2023-03-30T07:42:01.145Z,26
2023-03-30T07:43:08.154Z,38
2023-03-30T07:44:14.894Z,43
2023-03-30T07:45:21.670Z,34
2023-03-30T07:46:28.490Z,26
2023-03-30T07:47:35.250Z,37
2023-03-30T07:48:42.005Z,31
2023-03-30T07:49:48.862Z,25
2023-03-30T07:50:55.942Z,32
2023-03-30T07:52:05.786Z,26
2023-03-30T07:53:12.587Z,30
2023-03-30T07:54:19.392Z,44
2023-03-30T07:55:26.181Z,37
2023-03-30T07:56:33.156Z,30
2023-03-30T07:57:39.949Z,35
2023-03-30T07:58:46.715Z,36
2023-03-30T07:59:53.557Z,40
2023-03-30T08:01:00.398Z,45
2023-03-30T08:02:07.143Z,36
2023-03-30T08:03:14.068Z,31
2023-03-30T08:04:20.709Z,46
2023-03-30T08:05:27.460Z,29
2023-03-30T08:06:34.228Z,39
2023-03-30T08:07:41.113Z,32
2023-03-30T08:08:47.933Z,34
2023-03-30T08:09:54.733Z,30
2023-03-30T08:11:01.671Z,38
2023-03-30T08:12:08.470Z,39
2023-03-30T08:13:15.362Z,34
2023-03-30T08:14:22.127Z,37
2023-03-30T08:15:28.931Z,35
2023-03-30T08:16:35.790Z,28
2023-03-30T08:17:42.540Z,40
2023-03-30T08:18:49.356Z,41
2023-03-30T08:19:56.164Z,35
2023-03-30T08:21:03.086Z,36
2023-03-30T08:22:09.837Z,47
2023-03-30T08:23:22.561Z,46
2023-03-30T08:24:26.763Z,36
2023-03-30T08:25:33.542Z,37
2023-03-30T08:26:40.340Z,40
2023-03-30T08:27:47.121Z,36
2023-03-30T08:28:53.928Z,33
2023-03-30T08:30:00.735Z,42
2023-03-30T08:31:07.877Z,27
2023-03-30T08:32:14.581Z,36
2023-03-30T08:33:21.421Z,38
2023-03-30T08:34:28.187Z,37
2023-03-30T08:35:35.019Z,30
2023-03-30T08:36:41.843Z,35
2023-03-30T08:37:48.577Z,32
2023-03-30T08:38:55.378Z,26
2023-03-30T08:40:02.275Z,31
2023-03-30T08:41:11.909Z,26
2023-03-30T08:42:28.793Z,38
2023-03-30T08:43:40.738Z,34
2023-03-30T08:44:52.630Z,29
2023-03-30T08:45:59.463Z,38
2023-03-30T08:47:06.146Z,31
2023-03-30T08:48:12.904Z,35
2023-03-30T08:49:19.710Z,38
2023-03-30T08:50:26.712Z,45
2023-03-30T08:51:38.617Z,30
2023-03-30T08:52:45.453Z,34
2023-03-30T08:53:52.229Z,25
2023-03-30T08:54:59.005Z,25
2023-03-30T08:56:05.783Z,25
2023-03-30T08:57:12.647Z,34
2023-03-30T08:58:19.371Z,33
2023-03-30T08:59:33.933Z,25
2023-03-30T09:00:51.022Z,28
2023-03-30T09:01:57.984Z,34
2023-03-30T09:03:14.813Z,48
2023-03-30T09:04:31.742Z,44
2023-03-30T09:05:41.589Z,47
2023-03-30T09:06:53.524Z,50
2023-03-30T09:08:05.407Z,42
2023-03-30T09:09:17.264Z,40
2023-03-30T09:10:27.116Z,48
2023-03-30T09:11:34.120Z,42
2023-03-30T09:12:41.985Z,46
2023-03-30T09:13:54.472Z,42
2023-03-30T09:15:01.257Z,46
2023-03-30T09:16:15.683Z,39
2023-03-30T09:17:32.699Z,44
2023-03-30T09:18:42.598Z,42
2023-03-30T09:19:49.377Z,36
2023-03-30T09:21:01.392Z,46
2023-03-30T09:22:08.373Z,46
2023-03-30T09:23:15.177Z,47
2023-03-30T09:24:21.969Z,46
2023-03-30T09:25:28.708Z,34
2023-03-30T09:26:35.572Z,44
2023-03-30T09:27:45.167Z,42
2023-03-30T09:28:59.767Z,43
2023-03-30T09:30:14.162Z,38
2023-03-30T09:31:22.059Z,37
2023-03-30T09:32:32.808Z,36
2023-03-30T09:33:44.622Z,28
2023-03-30T09:34:59.280Z,35
2023-03-30T09:36:08.914Z,35
2023-03-30T09:37:23.368Z,30
2023-03-30T09:38:30.218Z,28
2023-03-30T09:39:37.040Z,26
2023-03-30T09:40:43.993Z,34
2023-03-30T09:41:53.568Z,33
2023-03-30T09:43:07.932Z,25
2023-03-30T09:44:22.597Z,25
2023-03-30T09:45:37.204Z,29
2023-03-30T09:46:44.025Z,38
2023-03-30T09:47:50.863Z,41
2023-03-30T09:48:57.583Z,33
2023-03-30T09:50:14.715Z,41
2023-03-30T09:51:27.906Z,38
2023-03-30T09:52:33.357Z,45
2023-03-30T09:53:40.240Z,38
2023-03-30T09:54:47.361Z,41
2023-03-30T09:55:54.196Z,31
2023-03-30T09:57:03.992Z,29
2023-03-30T09:58:10.865Z,27
2023-03-30T09:59:22.567Z,28
2023-03-30T10:00:31.883Z,31
2023-03-30T10:01:38.882Z,27
2023-03-30T10:02:45.831Z,26
2023-03-30T10:03:57.688Z,43
2023-03-30T10:05:12.069Z,38
2023-03-30T10:06:18.866Z,25
2023-03-30T10:07:25.636Z,32
2023-03-30T10:08:37.495Z,29
2023-03-30T10:09:46.944Z,25
2023-03-30T10:10:53.757Z,32
2023-03-30T10:12:00.671Z,38
2023-03-30T10:13:07.509Z,25
2023-03-30T10:14:17.019Z,34
2023-03-30T10:15:28.747Z,38
2023-03-30T10:16:35.603Z,25
2023-03-30T10:17:42.316Z,36
2023-03-30T10:18:49.004Z,28
2023-03-30T10:20:07.460Z,31
2023-03-30T10:21:15.583Z,31
2023-03-30T10:22:22.335Z,27
2023-03-30T10:23:29.147Z,30
2023-03-30T10:24:35.961Z,31
2023-03-30T10:25:42.894Z,27
2023-03-30T10:26:49.787Z,25
2023-03-30T10:27:56.654Z,25
2023-03-30T10:29:03.420Z,41
2023-03-30T10:30:10.287Z,31
2023-03-30T10:31:17.231Z,40
2023-03-30T10:32:24.300Z,41
2023-03-30T10:33:31.041Z,35
2023-03-30T10:34:42.927Z,37
2023-03-30T10:35:49.789Z,32
2023-03-30T10:36:59.074Z,29
2023-03-30T10:38:05.921Z,29
2023-03-30T10:39:12.702Z,34
2023-03-30T10:40:27.466Z,32
2023-03-30T10:41:39.981Z,31
2023-03-30T10:42:46.693Z,31
2023-03-30T10:43:53.522Z,33
2023-03-30T10:45:00.272Z,25
2023-03-30T10:46:18.640Z,26
2023-03-30T10:47:21.820Z,31
2023-03-30T10:48:33.581Z,34
2023-03-30T10:49:45.408Z,25
2023-03-30T10:51:02.308Z,31
2023-03-30T10:52:14.150Z,32
2023-03-30T10:53:26.821Z,43
2023-03-30T10:54:43.754Z,55
2023-03-30T10:55:53.542Z,53
2023-03-30T10:57:05.424Z,47
2023-03-30T10:58:14.858Z,53
2023-03-30T10:59:26.719Z,53
2023-03-30T11:00:43.709Z,50
2023-03-30T11:01:53.717Z,60
2023-03-30T11:03:10.607Z,59
2023-03-30T11:04:25.282Z,59
2023-03-30T11:05:37.099Z,53
2023-03-30T11:06:43.830Z,51
2023-03-30T11:07:50.544Z,54
2023-03-30T11:09:02.551Z,54
2023-03-30T11:10:09.356Z,50
2023-03-30T11:11:18.877Z,57
2023-03-30T11:12:25.694Z,54
2023-03-30T11:13:32.477Z,52
2023-03-30T11:14:39.425Z,50
2023-03-30T11:15:56.327Z,47
2023-03-30T11:17:05.752Z,47
2023-03-30T11:18:15.449Z,52
2023-03-30T11:19:27.250Z,46
2023-03-30T11:20:41.934Z,49
2023-03-30T11:21:58.856Z,56
2023-03-30T11:23:15.809Z,59
2023-03-30T11:24:22.648Z,53
2023-03-30T11:25:29.523Z,58
2023-03-30T11:26:41.516Z,50
2023-03-30T11:27:58.455Z,55
2023-03-30T11:29:10.365Z,47
2023-03-30T11:30:27.220Z,49
2023-03-30T11:31:34.135Z,49
2023-03-30T11:32:48.637Z,55
2023-03-30T11:34:00.399Z,44
2023-03-30T11:35:15.159Z,51
2023-03-30T11:36:31.984Z,55
2023-03-30T11:37:43.847Z,55
2023-03-30T11:38:53.411Z,55
2023-03-30T11:40:05.273Z,47
2023-03-30T11:41:17.197Z,54
2023-03-30T11:42:23.989Z,51
2023-03-30T11:43:33.770Z,56
2023-03-30T11:44:40.558Z,56
2023-03-30T11:45:47.388Z,50
2023-03-30T11:46:59.159Z,52
2023-03-30T11:48:11.088Z,55
2023-03-30T11:49:27.801Z,54
2023-03-30T11:50:45.882Z,52
2023-03-30T11:51:57.025Z,55
2023-03-30T11:53:13.849Z,52
2023-03-30T11:54:30.806Z,54
2023-03-30T11:55:45.592Z,60
2023-03-30T11:56:52.360Z,63
2023-03-30T11:58:09.241Z,59
2023-03-30T11:59:21.213Z,61
2023-03-30T12:00:28.101Z,62
2023-03-30T12:01:44.986Z,60
2023-03-30T12:02:59.474Z,63
2023-03-30T12:04:14.346Z,63
2023-03-30T12:05:20.966Z,64
2023-03-30T12:06:30.617Z,67
2023-03-30T12:07:37.501Z,68
2023-03-30T12:08:52.402Z,72
2023-03-30T12:10:06.825Z,72
2023-03-30T12:11:12.266Z,73
2023-03-30T12:12:22.316Z,69
2023-03-30T12:13:35.714Z,68
2023-03-30T12:14:36.048Z,69
2023-03-30T12:15:48.113Z,73
2023-03-30T12:16:54.911Z,72
2023-03-30T12:18:01.671Z,72
2023-03-30T12:19:13.412Z,79
2023-03-30T12:20:20.203Z,79
2023-03-30T12:21:32.065Z,80
2023-03-30T12:22:46.910Z,86
2023-03-30T12:24:01.356Z,90
2023-03-30T12:25:08.156Z,89
2023-03-30T12:26:22.860Z,89
2023-03-30T12:27:32.649Z,87
2023-03-30T12:28:54.253Z,88
2023-03-30T12:30:58.931Z,93
2023-03-30T12:32:05.931Z,86
2023-03-30T12:33:12.718Z,91
2023-03-30T12:34:19.650Z,88
2023-03-30T12:35:26.513Z,86
2023-03-30T12:36:43.365Z,96
2023-03-30T12:37:50.280Z,97
2023-03-30T12:38:57.063Z,100
2023-03-30T12:40:06.418Z,102
2023-03-30T12:41:18.423Z,106
2023-03-30T12:42:24.997Z,103
2023-03-30T12:43:37.519Z,108
2023-03-30T12:44:54.481Z,107
2023-03-30T12:46:04.836Z,104
2023-03-30T12:47:10.925Z,106
2023-03-30T12:48:26.057Z,106
2023-03-30T12:49:37.926Z,104
2023-03-30T12:50:52.623Z,108
2023-03-30T12:52:04.839Z,114
2023-03-30T12:53:17.330Z,112
2023-03-30T12:54:34.979Z,118
2023-03-30T12:55:51.155Z,113
2023-03-30T12:57:08.185Z,118
2023-03-30T12:58:18.069Z,122
2023-03-30T12:59:32.822Z,114
2023-03-30T13:00:44.960Z,127
2023-03-30T13:01:51.774Z,117
2023-03-30T13:03:01.239Z,114
2023-03-30T13:04:13.027Z,120
2023-03-30T13:05:25.732Z,114
2023-03-30T13:06:32.519Z,118
2023-03-30T13:07:42.011Z,110
2023-03-30T13:08:48.728Z,122
2023-03-30T13:10:04.955Z,122
2023-03-30T13:11:20.219Z,121
2023-03-30T13:12:27.113Z,120
2023-03-30T13:13:33.808Z,118
2023-03-30T13:14:48.459Z,126
2023-03-30T13:16:00.879Z,124
2023-03-30T13:17:07.823Z,117
2023-03-30T13:18:17.518Z,114
2023-03-30T13:19:32.212Z,125
2023-03-30T13:20:38.946Z,120
2023-03-30T13:21:50.829Z,114
2023-03-30T13:23:07.727Z,120
2023-03-30T13:24:14.522Z,119
2023-03-30T13:25:31.470Z,120
2023-03-30T13:26:43.952Z,119
2023-03-30T13:27:50.764Z,124
2023-03-30T13:28:57.555Z,117
2023-03-30T13:30:07.205Z,128
2023-03-30T13:31:14.300Z,122
2023-03-30T13:32:26.082Z,125
2023-03-30T13:33:43.020Z,128
2023-03-30T13:34:58.854Z,117
2023-03-30T13:36:05.111Z,115
2023-03-30T13:37:16.857Z,117
2023-03-30T13:38:26.373Z,126
2023-03-30T13:39:43.792Z,122
2023-03-30T13:41:03.764Z,124
2023-03-30T13:42:05.112Z,129
2023-03-30T13:43:15.069Z,129
2023-03-30T13:44:21.913Z,139
2023-03-30T13:45:36.640Z,143
2023-03-30T13:46:53.465Z,141
2023-03-30T13:48:05.288Z,164
2023-03-30T13:49:15.142Z,160
2023-03-30T13:50:32.047Z,158
2023-03-30T13:51:38.937Z,166
2023-03-30T13:52:48.438Z,166
2023-03-30T13:53:55.215Z,185
2023-03-30T13:55:07.234Z,216
2023-03-30T13:56:14.125Z,213
2023-03-30T13:57:21.097Z,222
2023-03-30T13:58:32.974Z,229
2023-03-30T13:59:39.859Z,236
2023-03-30T14:00:48.534Z,245
2023-03-30T14:02:03.653Z,255
2023-03-30T14:03:10.450Z,268
2023-03-30T14:04:22.301Z,272
2023-03-30T14:05:29.138Z,280
2023-03-30T14:06:35.869Z,293
2023-03-30T14:07:47.709Z,296
2023-03-30T14:08:54.488Z,294
2023-03-30T14:10:09.232Z,302
2023-03-30T14:11:18.929Z,309
2023-03-30T14:12:31.016Z,315
2023-03-30T14:13:37.771Z,312
2023-03-30T14:14:44.544Z,317
2023-03-30T14:15:51.291Z,322
2023-03-30T14:16:58.170Z,322
2023-03-30T14:18:05.092Z,323
2023-03-30T14:19:11.802Z,325
2023-03-30T14:20:23.658Z,325
2023-03-30T14:21:38.322Z,323
2023-03-30T14:22:47.961Z,324
2023-03-30T14:23:54.762Z,320
2023-03-30T14:25:01.707Z,322
2023-03-30T14:26:08.719Z,324
2023-03-30T14:27:15.493Z,323
2023-03-30T14:28:22.253Z,322
2023-03-30T14:29:31.744Z,325
2023-03-30T14:30:35.898Z,318
2023-03-30T14:31:42.794Z,322
2023-03-30T14:32:49.797Z,324
2023-03-30T14:34:06.519Z,317
2023-03-30T14:35:23.412Z,315
2023-03-30T14:36:30.179Z,319
2023-03-30T14:37:37.000Z,321
2023-03-30T14:38:43.718Z,325
2023-03-30T14:39:50.527Z,327
2023-03-30T14:40:57.456Z,321
2023-03-30T14:42:04.182Z,314
2023-03-30T14:43:13.658Z,316
2023-03-30T14:44:20.474Z,315
2023-03-30T14:45:27.235Z,313
2023-03-30T14:46:34.078Z,314
2023-03-30T14:47:43.784Z,323
2023-03-30T14:48:50.930Z,305
2023-03-30T14:49:57.250Z,310
2023-03-30T14:51:04.114Z,310
2023-03-30T14:52:23.713Z,308
2023-03-30T14:53:30.539Z,299
2023-03-30T14:54:37.397Z,295
2023-03-30T14:55:44.150Z,295
2023-03-30T14:56:50.991Z,294
2023-03-30T14:58:02.768Z,293
2023-03-30T14:59:09.520Z,284
2023-03-30T15:00:16.325Z,282
2023-03-30T15:01:26.151Z,280
2023-03-30T15:02:32.929Z,273
2023-03-30T15:03:39.841Z,272
2023-03-30T15:04:46.611Z,270
2023-03-30T15:05:53.399Z,277
2023-03-30T15:07:00.207Z,273
2023-03-30T15:08:07.086Z,271
2023-03-30T15:09:16.770Z,260
2023-03-30T15:10:23.701Z,268
2023-03-30T15:11:38.511Z,259
2023-03-30T15:12:45.322Z,250
2023-03-30T15:13:52.199Z,251
2023-03-30T15:14:58.973Z,254
2023-03-30T15:16:05.746Z,253
2023-03-30T15:17:12.622Z,250
2023-03-30T15:18:22.171Z,245
2023-03-30T15:19:29.104Z,237
2023-03-30T15:20:35.940Z,238
2023-03-30T15:21:42.848Z,232
2023-03-30T15:22:49.625Z,235
2023-03-30T15:23:56.416Z,229
2023-03-30T15:25:03.356Z,227
2023-03-30T15:26:10.215Z,245
2023-03-30T15:27:17.006Z,222
2023-03-30T15:28:23.774Z,225
2023-03-30T15:29:30.594Z,225
2023-03-30T15:30:37.490Z,220
2023-03-30T15:31:47.012Z,214
2023-03-30T15:33:01.528Z,212
2023-03-30T15:34:08.451Z,228
2023-03-30T15:35:18.208Z,217
2023-03-30T15:36:25.136Z,209
2023-03-30T15:37:36.934Z,220
2023-03-30T15:38:43.963Z,198
2023-03-30T15:39:53.700Z,203
2023-03-30T15:41:00.495Z,201
2023-03-30T15:42:07.309Z,209
2023-03-30T15:43:14.088Z,207
2023-03-30T15:44:23.511Z,202
2023-03-30T15:45:30.244Z,197
2023-03-30T15:46:37.183Z,196
2023-03-30T15:47:44.042Z,168
2023-03-30T15:48:50.765Z,181
2023-03-30T15:49:57.579Z,186
2023-03-30T15:51:04.543Z,172
2023-03-30T15:52:16.217Z,181
2023-03-30T15:53:25.666Z,174
2023-03-30T15:54:37.546Z,158
2023-03-30T15:55:47.430Z,172
2023-03-30T15:56:54.297Z,161
2023-03-30T15:58:06.146Z,165
2023-03-30T15:59:12.907Z,154
2023-03-30T16:00:20.660Z,159
2023-03-30T16:01:26.583Z,159
2023-03-30T16:02:38.391Z,154
2023-03-30T16:03:45.216Z,159
2023-03-30T16:04:54.979Z,158
2023-03-30T16:06:01.629Z,155